createdAt,value
2024-02-05T00:02:52.415Z,20.60
2024-02-05T00:05:45.857Z,20.60
2024-02-05T00:08:39.470Z,20.60
2024-02-05T00:11:34.307Z,20.50
2024-02-05T00:14:28.314Z,20.60
2024-02-05T00:17:21.814Z,20.60
2024-02-05T00:20:14.653Z,20.60
2024-02-05T00:23:07.686Z,20.60
2024-02-05T00:26:01.502Z,20.60
2024-02-05T00:28:55.666Z,20.50
2024-02-05T00:31:49.621Z,20.50
2024-02-05T00:34:42.439Z,20.50
2024-02-05T00:37:35.461Z,20.50
2024-02-05T00:40:28.749Z,20.60
2024-02-05T00:43:21.603Z,20.60
2024-02-05T00:46:24.016Z,20.60
2024-02-05T00:49:17.850Z,20.60
2024-02-05T00:52:11.924Z,20.60
2024-02-05T00:55:06.381Z,20.60
2024-02-05T00:57:59.470Z,20.60
2024-02-05T01:00:52.676Z,20.60
2024-02-05T01:03:49.916Z,20.60
2024-02-05T01:06:44.112Z,20.60
2024-02-05T01:09:37.745Z,20.60
2024-02-05T01:12:30.622Z,20.60
2024-02-05T01:15:23.769Z,20.60
2024-02-05T01:18:17.086Z,20.50
2024-02-05T01:21:12.176Z,20.60
2024-02-05T01:24:08.578Z,20.60
2024-02-05T01:27:01.643Z,20.60
2024-02-05T01:29:56.455Z,20.50
2024-02-05T01:32:50.421Z,20.60
2024-02-05T01:35:44.084Z,20.60
2024-02-05T01:38:39.253Z,20.60
2024-02-05T01:41:33.006Z,20.60
2024-02-05T01:44:25.561Z,20.60
2024-02-05T01:47:19.416Z,20.60
2024-02-05T01:50:14.893Z,20.60
2024-02-05T01:53:08.330Z,20.60
2024-02-05T01:56:03.349Z,20.60
2024-02-05T01:58:56.943Z,20.60
2024-02-05T02:01:49.968Z,20.60
2024-02-05T02:04:44.463Z,20.60
2024-02-05T02:07:37.853Z,20.60
2024-02-05T02:10:30.506Z,20.60
2024-02-05T02:13:25.335Z,20.60
2024-02-05T02:16:23.823Z,20.60
2024-02-05T02:19:38.171Z,20.60
2024-02-05T02:22:39.066Z,20.60
2024-02-05T02:25:40.184Z,20.60
2024-02-05T02:28:33.837Z,20.50
2024-02-05T02:31:30.981Z,20.60
2024-02-05T02:34:31.484Z,20.60
2024-02-05T02:37:29.340Z,20.60
2024-02-05T02:40:24.498Z,20.60
2024-02-05T02:43:23.309Z,20.60
2024-02-05T02:46:17.440Z,20.50
2024-02-05T02:49:11.075Z,20.60
2024-02-05T02:52:05.261Z,20.60
2024-02-05T02:54:58.643Z,20.50
2024-02-05T02:57:51.924Z,20.50
2024-02-05T03:00:46.009Z,20.60
2024-02-05T03:03:40.995Z,20.60
2024-02-05T03:06:35.351Z,20.60
2024-02-05T03:09:28.743Z,20.60
2024-02-05T03:12:22.361Z,20.60
2024-02-05T03:15:16.256Z,20.60
2024-02-05T03:18:12.041Z,20.60
2024-02-05T03:21:06.375Z,20.60
2024-02-05T03:23:59.649Z,20.60
2024-02-05T03:26:53.018Z,20.60
2024-02-05T03:29:45.573Z,20.60
2024-02-05T03:32:38.422Z,20.60
2024-02-05T03:35:33.729Z,20.60
2024-02-05T03:38:26.586Z,20.60
2024-02-05T03:41:20.073Z,20.60
2024-02-05T03:44:13.639Z,20.60
2024-02-05T03:47:07.070Z,20.60
2024-02-05T03:50:01.042Z,20.60
2024-02-05T03:52:56.645Z,20.60
2024-02-05T03:55:49.735Z,20.60
2024-02-05T03:58:42.884Z,20.60
2024-02-05T04:01:36.570Z,20.60
2024-02-05T04:04:31.570Z,20.60
2024-02-05T04:07:25.243Z,20.60
2024-02-05T04:10:20.166Z,20.60
2024-02-05T04:13:13.754Z,20.60
2024-02-05T04:16:14.491Z,20.60
2024-02-05T04:19:09.478Z,20.60
2024-02-05T04:22:03.048Z,20.60
2024-02-05T04:24:55.955Z,20.60
2024-02-05T04:27:50.555Z,20.60
2024-02-05T04:30:43.557Z,20.60
2024-02-05T04:33:36.682Z,20.60
2024-02-05T04:36:29.897Z,20.60
2024-02-05T04:39:23.028Z,20.60
2024-02-05T04:42:16.891Z,20.60
2024-02-05T04:45:12.180Z,20.60
2024-02-05T04:48:06.103Z,20.60
2024-02-05T04:51:00.334Z,20.60
2024-02-05T04:53:53.860Z,20.60
2024-02-05T04:56:46.941Z,20.60
2024-02-05T04:59:39.952Z,20.60
2024-02-05T05:02:34.359Z,20.60
2024-02-05T05:05:28.275Z,20.60
2024-02-05T05:08:21.892Z,20.60
2024-02-05T05:11:22.447Z,20.60
2024-02-05T05:14:16.736Z,20.60
2024-02-05T05:17:10.953Z,20.60
2024-02-05T05:20:06.561Z,20.60
2024-02-05T05:23:00.073Z,20.60
2024-02-05T05:25:52.668Z,20.60
2024-02-05T05:28:45.690Z,20.60
2024-02-05T05:31:38.522Z,20.60
2024-02-05T05:34:32.257Z,20.60
2024-02-05T05:37:27.633Z,20.60
2024-02-05T05:40:20.891Z,20.60
2024-02-05T05:43:14.066Z,20.60
2024-02-05T05:46:07.186Z,20.60
2024-02-05T05:49:01.038Z,20.60
2024-02-05T05:51:54.008Z,20.60
2024-02-05T05:54:48.344Z,20.60
2024-02-05T05:57:42.262Z,20.60
2024-02-05T06:00:35.775Z,20.60
2024-02-05T06:03:29.853Z,20.60
2024-02-05T06:06:22.819Z,20.60
2024-02-05T06:09:19.561Z,20.60
2024-02-05T06:12:13.964Z,20.60
2024-02-05T06:15:08.768Z,20.60
2024-02-05T06:18:02.073Z,20.60
2024-02-05T06:20:54.719Z,20.60
2024-02-05T06:23:48.799Z,20.60
2024-02-05T06:26:42.168Z,20.60
2024-02-05T06:29:37.225Z,20.60
2024-02-05T06:32:30.686Z,20.60
2024-02-05T06:35:26.310Z,20.60
2024-02-05T06:38:19.870Z,20.60
2024-02-05T06:41:12.742Z,20.60
2024-02-05T06:44:06.746Z,20.60
2024-02-05T06:47:03.869Z,20.60
2024-02-05T06:49:57.355Z,20.60
2024-02-05T06:52:51.153Z,20.60
2024-02-05T06:55:44.644Z,20.60
2024-02-05T06:58:37.668Z,20.60
2024-02-05T07:01:30.972Z,20.60
2024-02-05T07:04:25.527Z,20.60
2024-02-05T07:07:19.124Z,20.60
2024-02-05T07:10:12.474Z,20.60
2024-02-05T07:13:06.121Z,20.60
2024-02-05T07:16:00.168Z,20.60
2024-02-05T07:18:53.635Z,20.60
2024-02-05T07:21:48.401Z,20.60
2024-02-05T07:24:46.017Z,20.60
2024-02-05T07:27:40.180Z,20.60
2024-02-05T07:30:33.309Z,20.60
2024-02-05T07:33:26.919Z,20.60
2024-02-05T07:36:20.110Z,20.60
2024-02-05T07:39:14.373Z,20.60
2024-02-05T07:42:08.834Z,20.60
2024-02-05T07:45:02.825Z,20.60
2024-02-05T07:47:56.227Z,20.60
2024-02-05T07:50:49.030Z,20.60
2024-02-05T07:53:42.006Z,20.60
2024-02-05T07:56:37.247Z,20.60
2024-02-05T07:59:29.959Z,20.60
2024-02-05T08:02:24.042Z,20.60
2024-02-05T08:05:18.265Z,20.60
2024-02-05T08:08:11.744Z,20.60
2024-02-05T08:11:05.044Z,20.60
2024-02-05T08:13:59.576Z,20.60
2024-02-05T08:16:53.498Z,20.60
2024-02-05T08:19:48.826Z,20.60
2024-02-05T08:22:42.687Z,20.60
2024-02-05T08:25:38.934Z,20.60
2024-02-05T08:28:32.073Z,20.60
2024-02-05T08:31:26.509Z,20.60
2024-02-05T08:34:20.288Z,20.60
2024-02-05T08:37:13.070Z,20.60
2024-02-05T08:40:08.113Z,20.60
2024-02-05T08:43:02.233Z,20.60
2024-02-05T08:45:54.970Z,20.60
2024-02-05T08:48:49.717Z,20.70
2024-02-05T08:51:42.735Z,20.70
2024-02-05T08:54:36.801Z,20.80
2024-02-05T08:57:30.427Z,20.80
2024-02-05T09:00:24.414Z,20.50
2024-02-05T09:03:18.678Z,20.30
2024-02-05T09:06:16.717Z,19.60
2024-02-05T09:09:10.959Z,19.50
2024-02-05T09:12:06.801Z,19.20
2024-02-05T09:15:02.173Z,18.90
2024-02-05T09:17:55.112Z,19.00
2024-02-05T09:20:48.343Z,18.60
2024-02-05T09:23:43.373Z,18.70
2024-02-05T09:26:36.172Z,18.40
2024-02-05T09:29:29.253Z,18.60
2024-02-05T09:32:21.997Z,18.40
2024-02-05T09:35:15.322Z,18.50
2024-02-05T09:38:09.704Z,18.70
2024-02-05T09:41:06.849Z,18.70
2024-02-05T09:44:01.042Z,18.40
2024-02-05T09:46:57.016Z,18.50
2024-02-05T09:49:51.689Z,18.40
2024-02-05T09:52:47.003Z,18.60
2024-02-05T09:55:42.528Z,18.80
2024-02-05T09:58:37.277Z,18.80
2024-02-05T10:01:32.029Z,19.00
2024-02-05T10:04:27.023Z,19.00
2024-02-05T10:07:21.731Z,19.00
2024-02-05T10:10:16.195Z,18.60
2024-02-05T10:13:09.472Z,18.60
2024-02-05T10:16:06.327Z,18.40
2024-02-05T10:18:59.213Z,18.30
2024-02-05T10:21:52.531Z,18.30
2024-02-05T10:24:47.013Z,18.70
2024-02-05T10:27:40.150Z,18.50
2024-02-05T10:30:35.255Z,18.70
2024-02-05T10:33:32.263Z,19.10
2024-02-05T10:36:25.160Z,19.30
2024-02-05T10:39:24.476Z,19.50
2024-02-05T10:42:18.158Z,19.70
2024-02-05T10:45:12.330Z,19.80
2024-02-05T10:48:06.230Z,19.90
2024-02-05T10:51:00.249Z,20.00
2024-02-05T10:53:53.641Z,20.10
2024-02-05T10:56:48.330Z,20.10
2024-02-05T10:59:40.844Z,20.20
2024-02-05T11:02:37.422Z,20.30
2024-02-05T11:05:31.570Z,20.30
2024-02-05T11:08:28.372Z,20.40
2024-02-05T11:11:21.165Z,20.40
2024-02-05T11:14:18.774Z,20.50
2024-02-05T11:17:13.685Z,20.60
2024-02-05T11:20:12.017Z,20.60
2024-02-05T11:23:06.139Z,20.70
2024-02-05T11:26:00.625Z,20.80
2024-02-05T11:28:56.098Z,20.90
2024-02-05T11:31:49.117Z,20.90
2024-02-05T11:34:43.837Z,21.00
2024-02-05T11:37:38.082Z,21.10
2024-02-05T11:40:34.298Z,21.10
2024-02-05T11:43:31.079Z,21.20
2024-02-05T11:46:25.164Z,21.30
2024-02-05T11:49:19.544Z,21.40
2024-02-05T11:52:13.356Z,21.40
2024-02-05T11:55:08.782Z,21.40
2024-02-05T11:58:01.924Z,21.50
2024-02-05T12:00:57.192Z,21.60
2024-02-05T12:03:52.066Z,21.60
2024-02-05T12:06:45.595Z,21.70
2024-02-05T12:09:39.361Z,21.70
2024-02-05T12:12:32.577Z,21.80
2024-02-05T12:15:28.519Z,21.80
2024-02-05T12:18:23.785Z,21.80
2024-02-05T12:21:17.929Z,21.90
2024-02-05T12:24:11.574Z,21.90
2024-02-05T12:27:06.011Z,22.00
2024-02-05T12:30:07.167Z,22.00
2024-02-05T12:33:00.961Z,22.10
2024-02-05T12:36:01.607Z,22.10
2024-02-05T12:38:54.996Z,22.10
2024-02-05T12:41:48.613Z,22.10
2024-02-05T12:44:47.278Z,22.20
2024-02-05T12:47:49.455Z,22.20
2024-02-05T12:50:43.252Z,22.20
2024-02-05T12:53:40.104Z,22.20
2024-02-05T12:56:33.496Z,22.30
2024-02-05T12:59:26.290Z,22.30
2024-02-05T13:02:19.619Z,22.30
2024-02-05T13:05:13.317Z,22.30
2024-02-05T13:08:10.602Z,22.30
2024-02-05T13:11:07.282Z,22.30
2024-02-05T13:14:02.602Z,22.30
2024-02-05T13:17:01.752Z,22.30
2024-02-05T13:19:55.384Z,22.30
2024-02-05T13:22:48.141Z,22.30
2024-02-05T13:25:45.803Z,22.40
2024-02-05T13:28:42.499Z,22.40
2024-02-05T13:31:35.302Z,22.30
2024-02-05T13:34:30.665Z,22.40
2024-02-05T13:37:25.130Z,22.30
2024-02-05T13:40:18.326Z,22.30
2024-02-05T13:43:10.959Z,22.20
2024-02-05T13:46:06.694Z,22.20
2024-02-05T13:49:00.518Z,22.20
2024-02-05T13:51:53.437Z,22.10
2024-02-05T13:54:47.334Z,22.10
2024-02-05T13:57:40.723Z,22.10
2024-02-05T14:00:34.133Z,22.10
2024-02-05T14:03:29.597Z,22.10
2024-02-05T14:06:23.640Z,22.00
2024-02-05T14:09:17.448Z,22.00
2024-02-05T14:12:10.608Z,22.00
2024-02-05T14:15:04.470Z,21.90
2024-02-05T14:17:58.275Z,21.90
2024-02-05T14:20:52.509Z,21.80
2024-02-05T14:23:47.132Z,21.80
2024-02-05T14:26:40.438Z,21.80
2024-02-05T14:29:33.602Z,21.70
2024-02-05T14:32:26.282Z,21.70
2024-02-05T14:35:19.133Z,21.70
2024-02-05T14:38:13.888Z,21.60
2024-02-05T14:41:07.117Z,21.60
2024-02-05T14:44:01.198Z,21.60
2024-02-05T14:46:54.373Z,21.60
2024-02-05T14:49:48.267Z,21.60
2024-02-05T14:52:42.353Z,21.50
2024-02-05T14:55:36.601Z,21.50
2024-02-05T14:58:30.193Z,21.50
2024-02-05T15:01:23.489Z,21.50
2024-02-05T15:04:16.735Z,21.50
2024-02-05T15:07:10.631Z,21.40
2024-02-05T15:10:04.832Z,21.40
2024-02-05T15:12:59.892Z,21.40
2024-02-05T15:15:56.038Z,21.40
2024-02-05T15:18:53.162Z,21.40
2024-02-05T15:21:46.888Z,21.40
2024-02-05T15:24:41.046Z,21.40
2024-02-05T15:27:34.381Z,21.40
2024-02-05T15:30:28.382Z,21.40
2024-02-05T15:33:21.460Z,21.40
2024-02-05T15:36:14.769Z,21.30
2024-02-05T15:39:11.851Z,21.30
2024-02-05T15:42:05.779Z,21.30
2024-02-05T15:44:59.496Z,21.30
2024-02-05T15:47:54.592Z,21.30
2024-02-05T15:50:47.333Z,21.30
2024-02-05T15:53:40.533Z,21.30
2024-02-05T15:56:39.775Z,21.30
2024-02-05T15:59:36.356Z,21.30
2024-02-05T16:02:29.638Z,21.30
2024-02-05T16:05:24.637Z,21.20
2024-02-05T16:08:17.184Z,21.20
2024-02-05T16:11:10.420Z,21.20
2024-02-05T16:14:04.976Z,21.20
2024-02-05T16:16:58.812Z,21.20
2024-02-05T16:19:54.281Z,21.20
2024-02-05T16:22:49.561Z,21.20
2024-02-05T16:25:44.045Z,21.20
2024-02-05T16:28:37.356Z,21.20
2024-02-05T16:31:30.421Z,21.20
2024-02-05T16:34:23.329Z,21.10
2024-02-05T16:37:16.292Z,21.10
2024-02-05T16:40:11.793Z,21.10
2024-02-05T16:43:05.567Z,21.10
2024-02-05T16:45:59.206Z,21.10
2024-02-05T16:48:52.650Z,21.10
2024-02-05T16:51:45.328Z,21.10
2024-02-05T16:54:38.375Z,21.10
2024-02-05T16:57:32.542Z,21.10
2024-02-05T17:00:27.009Z,21.10
2024-02-05T17:03:20.665Z,21.10
2024-02-05T17:06:13.619Z,21.10
2024-02-05T17:09:07.359Z,21.10
2024-02-05T17:12:00.551Z,21.10
2024-02-05T17:14:54.769Z,21.00
2024-02-05T17:17:48.804Z,21.10
2024-02-05T17:20:42.286Z,21.10
2024-02-05T17:23:35.607Z,21.00
2024-02-05T17:26:28.295Z,21.00
2024-02-05T17:29:21.883Z,21.00
2024-02-05T17:32:16.685Z,21.00
2024-02-05T17:35:11.204Z,21.00
2024-02-05T17:38:05.499Z,21.00
2024-02-05T17:40:58.339Z,21.00
2024-02-05T17:43:51.251Z,21.00
2024-02-05T17:46:46.383Z,21.00
2024-02-05T17:49:40.629Z,21.00
2024-02-05T17:52:33.701Z,21.00
2024-02-05T17:55:26.668Z,21.00
2024-02-05T17:58:19.371Z,21.00
2024-02-05T18:01:13.453Z,21.00
2024-02-05T18:04:09.042Z,21.00
2024-02-05T18:07:06.010Z,21.00
2024-02-05T18:09:59.276Z,21.00
2024-02-05T18:12:53.712Z,21.00
2024-02-05T18:15:47.440Z,21.00
2024-02-05T18:18:40.854Z,21.00
2024-02-05T18:21:37.053Z,20.90
2024-02-05T18:24:38.133Z,21.00
2024-02-05T18:27:38.336Z,21.00
2024-02-05T18:30:32.909Z,20.90
2024-02-05T18:33:26.619Z,21.00
2024-02-05T18:36:19.432Z,21.00
2024-02-05T18:39:14.128Z,21.00
2024-02-05T18:42:10.947Z,21.00
2024-02-05T18:45:05.289Z,21.00
2024-02-05T18:47:58.653Z,21.00
2024-02-05T18:50:52.085Z,21.00
2024-02-05T18:53:45.797Z,21.00
2024-02-05T18:56:38.392Z,21.00
2024-02-05T18:59:33.025Z,20.80
2024-02-05T19:02:28.393Z,20.60
2024-02-05T19:05:21.626Z,20.70
2024-02-05T19:08:14.742Z,20.70
2024-02-05T19:11:08.395Z,20.70
2024-02-05T19:14:01.821Z,20.80
2024-02-05T19:16:56.090Z,20.80
2024-02-05T19:19:50.330Z,20.80
2024-02-05T19:22:44.172Z,20.80
2024-02-05T19:25:38.465Z,20.80
2024-02-05T19:28:31.816Z,20.80
2024-02-05T19:31:25.911Z,20.80
2024-02-05T19:34:22.022Z,20.80
2024-02-05T19:37:16.597Z,20.80
2024-02-05T19:40:10.137Z,20.80
2024-02-05T19:43:05.181Z,20.80
2024-02-05T19:45:58.737Z,20.80
2024-02-05T19:48:51.629Z,20.80
2024-02-05T19:51:45.709Z,20.80
2024-02-05T19:54:40.325Z,20.80
2024-02-05T19:57:33.748Z,20.80
2024-02-05T20:00:29.824Z,20.90
2024-02-05T20:03:22.675Z,20.80
2024-02-05T20:06:15.825Z,20.80
2024-02-05T20:09:12.179Z,20.80
2024-02-05T20:12:09.549Z,20.80
2024-02-05T20:15:05.316Z,20.90
2024-02-05T20:17:58.853Z,20.90
2024-02-05T20:20:52.705Z,20.90
2024-02-05T20:23:47.889Z,20.90
2024-02-05T20:26:42.875Z,20.90
2024-02-05T20:29:35.457Z,20.90
2024-02-05T20:32:29.492Z,20.90
2024-02-05T20:35:24.687Z,20.80
2024-02-05T20:38:17.505Z,20.90
2024-02-05T20:41:13.098Z,20.80
2024-02-05T20:44:12.534Z,20.90
2024-02-05T20:47:06.062Z,20.80
2024-02-05T20:50:00.020Z,20.90
2024-02-05T20:52:53.777Z,20.90
2024-02-05T20:55:46.664Z,20.90
2024-02-05T20:58:39.959Z,20.90
2024-02-05T21:01:35.273Z,20.90
2024-02-05T21:04:28.949Z,20.80
2024-02-05T21:07:23.959Z,20.90
2024-02-05T21:10:19.338Z,20.90
2024-02-05T21:13:12.384Z,20.90
2024-02-05T21:16:08.581Z,20.90
2024-02-05T21:19:04.764Z,20.90
2024-02-05T21:21:57.678Z,20.90
2024-02-05T21:24:52.942Z,20.90
2024-02-05T21:27:47.385Z,20.90
2024-02-05T21:30:41.147Z,20.90
2024-02-05T21:33:34.573Z,20.90
2024-02-05T21:36:29.212Z,20.90
2024-02-05T21:39:23.204Z,20.80
2024-02-05T21:42:16.755Z,20.90
2024-02-05T21:45:10.166Z,20.90
2024-02-05T21:48:10.045Z,20.80
2024-02-05T21:51:03.688Z,20.90
2024-02-05T21:53:58.344Z,20.90
2024-02-05T21:56:51.949Z,20.90
2024-02-05T21:59:44.742Z,20.80
2024-02-05T22:02:37.994Z,20.90
2024-02-05T22:05:32.565Z,20.90
2024-02-05T22:08:26.022Z,20.90
2024-02-05T22:11:20.737Z,20.90
2024-02-05T22:14:13.840Z,20.90
2024-02-05T22:17:08.405Z,20.90
2024-02-05T22:20:02.110Z,20.90
2024-02-05T22:22:56.624Z,20.90
2024-02-05T22:25:50.591Z,20.90
2024-02-05T22:28:45.058Z,20.90
2024-02-05T22:31:38.580Z,20.80
2024-02-05T22:34:32.891Z,20.90
2024-02-05T22:37:28.204Z,20.90
2024-02-05T22:40:21.767Z,20.90
2024-02-05T22:43:17.465Z,20.90
2024-02-05T22:46:12.942Z,20.90
2024-02-05T22:49:05.956Z,20.90
2024-02-05T22:51:58.776Z,20.90
2024-02-05T22:54:51.854Z,20.90
2024-02-05T22:57:44.815Z,20.90
2024-02-05T23:00:39.447Z,20.90
2024-02-05T23:03:35.321Z,20.90
2024-02-05T23:06:29.354Z,20.90
2024-02-05T23:09:26.632Z,20.80
2024-02-05T23:12:20.270Z,20.80
2024-02-05T23:15:13.994Z,20.90
2024-02-05T23:18:08.612Z,20.80
2024-02-05T23:21:03.141Z,20.80
2024-02-05T23:23:57.572Z,20.90
2024-02-05T23:26:50.726Z,20.90
2024-02-05T23:29:43.518Z,20.90
2024-02-05T23:32:37.061Z,20.90
2024-02-05T23:35:30.653Z,20.90
2024-02-05T23:38:26.138Z,20.90
2024-02-05T23:41:22.007Z,20.90
2024-02-05T23:44:14.798Z,20.90
2024-02-05T23:47:08.441Z,20.90
2024-02-05T23:50:01.890Z,20.90
2024-02-05T23:52:54.874Z,20.80
2024-02-05T23:55:49.201Z,20.90
2024-02-05T23:58:42.708Z,20.90
